createdAt,value
2023-01-18T00:02:58.037Z,6.14
2023-01-18T00:06:02.378Z,6.15
2023-01-18T00:09:05.147Z,6.32
2023-01-18T00:12:07.878Z,6.31
2023-01-18T00:15:11.287Z,6.34
2023-01-18T00:18:14.160Z,6.27
2023-01-18T00:21:16.955Z,6.26
2023-01-18T00:24:22.918Z,6.06
2023-01-18T00:27:25.807Z,6.07
2023-01-18T00:30:29.954Z,6.07
2023-01-18T00:33:32.664Z,6.01
2023-01-18T00:36:35.660Z,5.99
2023-01-18T00:39:38.595Z,5.99
2023-01-18T00:43:01.043Z,6.04
2023-01-18T00:46:05.827Z,5.91
2023-01-18T00:49:08.720Z,5.84
2023-01-18T00:52:11.485Z,5.92
2023-01-18T00:55:16.271Z,5.89
2023-01-18T00:58:19.562Z,5.91
2023-01-18T01:01:22.490Z,5.87
2023-01-18T01:04:43.813Z,5.79
2023-01-18T01:07:49.524Z,5.77
2023-01-18T01:11:10.690Z,5.66
2023-01-18T01:14:31.956Z,5.69
2023-01-18T01:17:55.191Z,5.61
2023-01-18T01:21:16.387Z,5.63
2023-01-18T01:24:37.755Z,5.75
2023-01-18T01:27:40.610Z,5.83
2023-01-18T01:30:44.758Z,5.84
2023-01-18T01:33:50.913Z,5.80
2023-01-18T01:36:53.651Z,5.79
2023-01-18T01:39:56.757Z,5.88
2023-01-18T01:42:59.823Z,5.75
2023-01-18T01:46:04.102Z,5.77
2023-01-18T01:49:12.873Z,5.75
2023-01-18T01:52:28.220Z,5.61
2023-01-18T01:55:37.913Z,5.46
2023-01-18T01:58:41.889Z,5.46
2023-01-18T02:01:46.333Z,5.33
2023-01-18T02:04:53.832Z,5.29
2023-01-18T02:08:00.937Z,5.35
2023-01-18T02:11:03.835Z,5.44
2023-01-18T02:14:15.925Z,5.50
2023-01-18T02:17:56.214Z,5.45
2023-01-18T02:21:19.768Z,5.46
2023-01-18T02:24:46.500Z,5.50
2023-01-18T02:28:06.301Z,5.49
2023-01-18T02:31:21.503Z,5.54
2023-01-18T02:34:39.387Z,5.62
2023-01-18T02:37:54.296Z,5.60
2023-01-18T02:41:05.849Z,5.54
2023-01-18T02:44:27.123Z,5.47
2023-01-18T02:47:30.836Z,5.33
2023-01-18T02:50:34.108Z,5.20
2023-01-18T02:53:46.389Z,5.11
2023-01-18T02:56:56.817Z,5.05
2023-01-18T03:00:02.963Z,4.97
2023-01-18T03:03:11.044Z,4.86
2023-01-18T03:06:14.442Z,4.87
2023-01-18T03:09:21.739Z,4.90
2023-01-18T03:13:00.215Z,4.94
2023-01-18T03:16:21.225Z,4.86
2023-01-18T03:20:04.145Z,4.89
2023-01-18T03:23:38.887Z,4.89
2023-01-18T03:26:47.235Z,4.94
2023-01-18T03:30:08.722Z,4.93
2023-01-18T03:33:31.458Z,4.95
2023-01-18T03:36:40.277Z,5.03
2023-01-18T03:39:46.798Z,5.14
2023-01-18T03:43:07.854Z,5.12
2023-01-18T03:46:12.632Z,5.11
2023-01-18T03:49:16.725Z,5.11
2023-01-18T03:52:31.932Z,4.99
2023-01-18T03:55:44.014Z,5.00
2023-01-18T03:58:49.516Z,5.04
2023-01-18T04:01:53.024Z,5.02
2023-01-18T04:04:57.805Z,5.03
2023-01-18T04:08:00.718Z,5.05
2023-01-18T04:11:03.563Z,5.00
2023-01-18T04:14:06.416Z,4.94
2023-01-18T04:17:09.211Z,4.93
2023-01-18T04:20:12.398Z,4.94
2023-01-18T04:23:15.672Z,4.95
2023-01-18T04:26:19.421Z,4.94
2023-01-18T04:29:23.342Z,4.91
2023-01-18T04:32:26.185Z,4.96
2023-01-18T04:35:28.987Z,5.10
2023-01-18T04:38:31.908Z,5.25
2023-01-18T04:41:35.066Z,5.27
2023-01-18T04:44:38.220Z,5.97
2023-01-18T04:47:41.075Z,5.76
2023-01-18T04:50:46.660Z,5.46
2023-01-18T04:53:49.660Z,5.33
2023-01-18T04:56:52.676Z,5.23
2023-01-18T04:59:55.531Z,5.17
2023-01-18T05:02:58.532Z,5.12
2023-01-18T05:06:01.521Z,4.97
2023-01-18T05:09:04.418Z,4.89
2023-01-18T05:12:07.392Z,4.87
2023-01-18T05:15:10.653Z,4.83
2023-01-18T05:18:13.398Z,4.78
2023-01-18T05:21:16.218Z,4.74
2023-01-18T05:24:18.950Z,4.68
2023-01-18T05:27:21.772Z,4.67
2023-01-18T05:30:24.644Z,4.65
2023-01-18T05:33:27.589Z,4.63
2023-01-18T05:36:30.503Z,4.69
2023-01-18T05:39:33.639Z,4.69
2023-01-18T05:42:36.586Z,4.65
2023-01-18T05:45:39.896Z,4.71
2023-01-18T05:48:42.880Z,4.66
2023-01-18T05:51:45.652Z,4.77
2023-01-18T05:54:48.508Z,4.75
2023-01-18T05:57:51.307Z,4.65
2023-01-18T06:00:54.603Z,4.61
2023-01-18T06:03:57.559Z,4.49
2023-01-18T06:07:00.471Z,4.54
2023-01-18T06:10:03.755Z,4.45
2023-01-18T06:13:06.980Z,4.42
2023-01-18T06:16:12.125Z,4.34
2023-01-18T06:19:14.932Z,4.32
2023-01-18T06:22:17.798Z,4.18
2023-01-18T06:25:20.608Z,4.07
2023-01-18T06:28:23.472Z,4.02
2023-01-18T06:31:26.348Z,3.99
2023-01-18T06:34:30.441Z,4.01
2023-01-18T06:37:33.733Z,3.99
2023-01-18T06:40:37.172Z,4.12
2023-01-18T06:43:40.064Z,4.22
2023-01-18T06:46:46.108Z,4.26
2023-01-18T06:49:49.057Z,4.32
2023-01-18T06:52:52.271Z,4.08
2023-01-18T06:55:58.808Z,4.05
2023-01-18T06:59:04.045Z,4.01
2023-01-18T07:02:07.951Z,4.00
2023-01-18T07:05:11.339Z,3.99
2023-01-18T07:08:14.634Z,3.98
2023-01-18T07:11:18.905Z,4.09
2023-01-18T07:14:21.939Z,4.04
2023-01-18T07:17:24.766Z,4.07
2023-01-18T07:20:29.799Z,4.33
2023-01-18T07:23:35.564Z,4.37
2023-01-18T07:26:41.266Z,4.45
2023-01-18T07:29:44.291Z,4.60
2023-01-18T07:32:49.645Z,4.83
2023-01-18T07:35:54.287Z,5.34
2023-01-18T07:38:57.611Z,6.28
2023-01-18T07:42:02.002Z,6.64
2023-01-18T07:45:08.881Z,6.70
2023-01-18T07:48:11.779Z,7.06
2023-01-18T07:51:15.840Z,9.84
2023-01-18T07:54:19.321Z,9.42
2023-01-18T07:57:22.232Z,8.76
2023-01-18T08:00:26.046Z,8.00
2023-01-18T08:03:32.843Z,7.40
2023-01-18T08:06:39.676Z,10.90
2023-01-18T08:09:47.742Z,13.22
2023-01-18T08:12:52.114Z,14.66
2023-01-18T08:15:56.918Z,16.32
2023-01-18T08:19:00.331Z,17.22
2023-01-18T08:22:03.720Z,17.89
2023-01-18T08:25:07.174Z,18.63
2023-01-18T08:28:11.268Z,18.17
2023-01-18T08:31:18.836Z,18.45
2023-01-18T08:34:31.870Z,18.78
2023-01-18T08:37:36.421Z,18.49
2023-01-18T08:40:41.059Z,20.24
2023-01-18T08:43:44.403Z,20.22
2023-01-18T08:46:50.078Z,20.13
2023-01-18T08:49:53.141Z,19.88
2023-01-18T08:52:57.410Z,19.45
2023-01-18T08:56:04.700Z,20.36
2023-01-18T08:59:08.810Z,20.86
2023-01-18T09:02:12.466Z,21.25
2023-01-18T09:05:15.858Z,20.24
2023-01-18T09:08:19.039Z,19.27
2023-01-18T09:11:25.013Z,20.33
2023-01-18T09:14:27.822Z,19.28
2023-01-18T09:17:31.136Z,17.09
2023-01-18T09:20:36.690Z,19.48
2023-01-18T09:23:40.807Z,16.33
2023-01-18T09:26:45.211Z,15.22
2023-01-18T09:29:52.508Z,15.48
2023-01-18T09:32:57.745Z,18.48
2023-01-18T09:36:07.852Z,20.92
2023-01-18T09:39:10.696Z,22.30
2023-01-18T09:42:28.790Z,22.30
2023-01-18T09:45:35.148Z,21.78
2023-01-18T09:48:43.050Z,22.28
2023-01-18T09:52:06.070Z,23.26
2023-01-18T09:55:15.194Z,23.07
2023-01-18T09:58:39.532Z,23.52
2023-01-18T10:01:42.970Z,22.25
2023-01-18T10:04:53.121Z,19.89
2023-01-18T10:08:25.587Z,22.86
2023-01-18T10:11:45.155Z,23.57
2023-01-18T10:14:57.868Z,23.08
2023-01-18T10:18:01.551Z,23.75
2023-01-18T10:21:07.662Z,24.80
2023-01-18T10:24:42.919Z,24.23
2023-01-18T10:28:25.435Z,24.11
2023-01-18T10:31:53.257Z,23.56
2023-01-18T10:34:57.995Z,24.98
2023-01-18T10:38:12.356Z,23.96
2023-01-18T10:41:29.502Z,25.20
2023-01-18T10:44:32.987Z,24.89
2023-01-18T10:47:35.876Z,25.55
2023-01-18T10:50:53.248Z,25.62
2023-01-18T10:54:00.099Z,24.79
2023-01-18T10:57:04.769Z,25.43
2023-01-18T11:00:22.603Z,23.54
2023-01-18T11:03:28.631Z,24.81
2023-01-18T11:06:53.735Z,24.88
2023-01-18T11:10:01.708Z,25.13
2023-01-18T11:13:24.698Z,25.09
2023-01-18T11:16:29.276Z,25.32
2023-01-18T11:19:34.115Z,25.66
2023-01-18T11:23:02.474Z,24.45
2023-01-18T11:26:15.239Z,24.78
2023-01-18T11:29:19.019Z,23.72
2023-01-18T11:32:26.981Z,22.88
2023-01-18T11:35:34.469Z,24.58
2023-01-18T11:38:37.390Z,24.09
2023-01-18T11:41:40.365Z,25.13
2023-01-18T11:45:07.817Z,24.92
2023-01-18T11:48:26.473Z,25.82
2023-01-18T11:51:39.241Z,25.69
2023-01-18T11:54:52.879Z,26.10
2023-01-18T11:57:55.959Z,25.96
2023-01-18T12:01:07.435Z,25.73
2023-01-18T12:04:55.106Z,26.82
2023-01-18T12:08:24.600Z,26.93
2023-01-18T12:11:46.200Z,26.14
2023-01-18T12:15:18.603Z,26.60
2023-01-18T12:18:24.767Z,26.45
2023-01-18T12:22:00.305Z,25.80
2023-01-18T12:25:16.367Z,25.57
2023-01-18T12:28:28.374Z,26.20
2023-01-18T12:31:58.931Z,24.85
2023-01-18T12:35:35.801Z,22.93
2023-01-18T12:38:49.464Z,23.08
2023-01-18T12:42:10.176Z,22.93
2023-01-18T12:45:20.685Z,23.32
2023-01-18T12:48:54.850Z,22.72
2023-01-18T12:52:17.724Z,20.34
2023-01-18T12:55:25.800Z,19.10
2023-01-18T12:58:28.802Z,18.80
2023-01-18T13:01:53.561Z,17.72
2023-01-18T13:05:05.288Z,16.55
2023-01-18T13:08:27.962Z,16.13
2023-01-18T13:11:35.719Z,15.55
2023-01-18T13:14:38.612Z,14.77
2023-01-18T13:17:56.982Z,14.48
2023-01-18T13:21:19.289Z,14.15
2023-01-18T13:24:28.121Z,13.88
2023-01-18T13:27:31.726Z,13.72
2023-01-18T13:30:57.252Z,13.50
2023-01-18T13:34:00.655Z,13.41
2023-01-18T13:37:14.837Z,13.48
2023-01-18T13:40:35.267Z,13.38
2023-01-18T13:43:37.975Z,13.44
2023-01-18T13:46:42.626Z,13.26
2023-01-18T13:49:46.792Z,12.95
2023-01-18T13:53:15.466Z,12.67
2023-01-18T13:56:23.833Z,12.65
2023-01-18T13:59:31.938Z,12.68
2023-01-18T14:02:44.240Z,12.60
2023-01-18T14:05:49.145Z,12.66
2023-01-18T14:08:55.587Z,12.81
2023-01-18T14:11:59.530Z,12.83
2023-01-18T14:15:02.752Z,12.84
2023-01-18T14:18:24.837Z,12.64
2023-01-18T14:22:06.318Z,12.38
2023-01-18T14:25:27.304Z,11.91
2023-01-18T14:28:48.225Z,11.78
2023-01-18T14:31:56.129Z,11.57
2023-01-18T14:35:03.129Z,11.51
2023-01-18T14:38:18.881Z,11.32
2023-01-18T14:41:21.991Z,11.37
2023-01-18T14:44:31.307Z,11.37
2023-01-18T14:47:35.014Z,11.29
2023-01-18T14:50:41.930Z,11.23
2023-01-18T14:53:48.502Z,11.06
2023-01-18T14:57:00.039Z,11.05
2023-01-18T15:00:17.261Z,10.93
2023-01-18T15:03:28.975Z,10.87
2023-01-18T15:06:34.746Z,10.76
2023-01-18T15:09:39.884Z,10.76
2023-01-18T15:12:48.597Z,10.55
2023-01-18T15:15:51.566Z,10.43
2023-01-18T15:18:56.109Z,10.54
2023-01-18T15:22:01.944Z,10.59
2023-01-18T15:25:14.653Z,10.52
2023-01-18T15:28:23.916Z,10.42
2023-01-18T15:31:27.900Z,10.43
2023-01-18T15:34:36.880Z,10.33
2023-01-18T15:37:39.900Z,10.20
2023-01-18T15:40:54.303Z,9.98
2023-01-18T15:43:58.473Z,9.81
2023-01-18T15:47:02.459Z,9.63
2023-01-18T15:50:18.711Z,9.48
2023-01-18T15:53:35.485Z,9.33
2023-01-18T15:56:38.590Z,9.20
2023-01-18T15:59:42.864Z,9.09
2023-01-18T16:02:46.147Z,8.91
2023-01-18T16:06:11.451Z,8.93
2023-01-18T16:09:16.120Z,8.88
2023-01-18T16:12:34.940Z,8.92
2023-01-18T16:15:38.300Z,8.96
2023-01-18T16:18:48.756Z,8.84
2023-01-18T16:22:00.136Z,8.77
2023-01-18T16:25:21.289Z,8.66
2023-01-18T16:28:25.002Z,8.62
2023-01-18T16:31:29.108Z,8.55
2023-01-18T16:34:32.173Z,8.49
2023-01-18T16:37:35.364Z,8.47
2023-01-18T16:40:40.197Z,8.36
2023-01-18T16:43:44.180Z,8.30
2023-01-18T16:46:48.434Z,8.21
2023-01-18T16:49:51.499Z,8.22
2023-01-18T16:52:54.661Z,8.18
2023-01-18T16:55:57.622Z,8.26
2023-01-18T16:59:20.747Z,8.35
2023-01-18T17:02:32.562Z,8.41
2023-01-18T17:07:15.041Z,8.49
2023-01-18T17:10:43.468Z,8.46
2023-01-18T17:13:47.919Z,8.42
2023-01-18T17:16:51.093Z,8.41
2023-01-18T17:19:54.603Z,8.40
2023-01-18T17:22:57.795Z,8.36
2023-01-18T17:26:00.990Z,8.32
2023-01-18T17:29:05.295Z,8.35
2023-01-18T17:32:10.415Z,8.34
2023-01-18T17:35:15.559Z,8.41
2023-01-18T17:38:25.081Z,8.41
2023-01-18T17:41:29.747Z,8.53
2023-01-18T17:44:37.429Z,8.58
2023-01-18T17:47:42.678Z,8.65
2023-01-18T17:50:45.672Z,8.58
2023-01-18T17:53:49.044Z,8.59
2023-01-18T17:56:53.307Z,8.61
2023-01-18T17:59:56.752Z,8.64
2023-01-18T18:03:01.217Z,8.69
2023-01-18T18:06:05.893Z,8.66
2023-01-18T18:09:08.970Z,8.62
2023-01-18T18:12:13.097Z,8.56
2023-01-18T18:18:36.867Z,8.33
2023-01-18T18:21:40.005Z,8.27
2023-01-18T18:24:43.071Z,8.12
2023-01-18T18:27:47.296Z,8.12
2023-01-18T18:30:51.681Z,8.03
2023-01-18T18:33:54.639Z,8.02
2023-01-18T18:36:57.726Z,7.98
2023-01-18T18:43:21.662Z,7.88
2023-01-18T18:49:46.718Z,7.79
2023-01-18T18:52:49.816Z,7.63
2023-01-18T18:55:58.923Z,7.53
2023-01-18T18:59:02.425Z,7.43
2023-01-18T19:02:05.850Z,7.37
2023-01-18T19:05:10.821Z,7.28
2023-01-18T19:08:13.737Z,7.26
2023-01-18T19:11:17.767Z,7.12
2023-01-18T19:14:20.829Z,7.03
2023-01-18T19:17:30.208Z,6.97
2023-01-18T19:20:33.606Z,6.83
2023-01-18T19:23:36.927Z,6.79
2023-01-18T19:26:40.483Z,6.81
2023-01-18T19:29:43.707Z,6.80
2023-01-18T19:32:48.544Z,6.74
2023-01-18T19:35:51.500Z,6.62
2023-01-18T19:38:59.766Z,6.57
2023-01-18T19:42:03.422Z,6.61
2023-01-18T19:45:08.225Z,6.57
2023-01-18T19:48:12.706Z,6.51
2023-01-18T19:51:22.655Z,6.50
2023-01-18T19:54:26.488Z,6.45
2023-01-18T19:57:29.889Z,6.42
2023-01-18T20:00:34.289Z,6.49
2023-01-18T20:03:37.737Z,6.46
2023-01-18T20:06:43.616Z,6.40
2023-01-18T20:09:47.530Z,6.35
2023-01-18T20:12:50.657Z,6.38
2023-01-18T20:15:54.717Z,6.25
2023-01-18T20:18:58.200Z,6.28
2023-01-18T20:22:01.296Z,6.26
2023-01-18T20:25:04.613Z,6.25
2023-01-18T20:28:10.102Z,6.27
2023-01-18T20:31:13.961Z,6.25
2023-01-18T20:34:17.093Z,6.31
2023-01-18T20:37:20.565Z,6.29
2023-01-18T20:40:24.998Z,6.20
2023-01-18T20:43:27.959Z,6.18
2023-01-18T20:46:30.873Z,6.21
2023-01-18T20:49:38.282Z,6.22
2023-01-18T20:52:42.267Z,6.22
2023-01-18T20:55:45.619Z,6.29
2023-01-18T20:58:49.031Z,6.19
2023-01-18T21:01:53.193Z,6.16
2023-01-18T21:04:56.670Z,6.15
2023-01-18T21:08:00.051Z,6.14
2023-01-18T21:11:03.280Z,6.14
2023-01-18T21:14:06.432Z,6.17
2023-01-18T21:17:09.528Z,6.17
2023-01-18T21:20:12.800Z,6.09
2023-01-18T21:23:16.834Z,6.00
2023-01-18T21:26:20.012Z,5.98
2023-01-18T21:29:23.176Z,6.01
2023-01-18T21:32:26.120Z,6.04
2023-01-18T21:35:30.031Z,6.03
2023-01-18T21:38:33.128Z,6.03
2023-01-18T21:41:54.508Z,6.08
2023-01-18T21:45:15.685Z,6.17
2023-01-18T21:48:18.860Z,6.14
2023-01-18T21:51:40.229Z,6.08
2023-01-18T21:54:43.176Z,6.14
2023-01-18T21:58:05.951Z,6.20
2023-01-18T22:01:17.939Z,6.12
2023-01-18T22:04:39.383Z,6.09
2023-01-18T22:07:42.871Z,6.10
2023-01-18T22:10:47.588Z,6.18
2023-01-18T22:13:50.488Z,6.23
2023-01-18T22:16:53.891Z,6.27
2023-01-18T22:19:57.089Z,6.22
2023-01-18T22:23:06.233Z,6.25
2023-01-18T22:26:09.008Z,6.28
2023-01-18T22:29:12.666Z,6.16
2023-01-18T22:32:16.504Z,6.24
2023-01-18T22:35:19.369Z,6.20
2023-01-18T22:38:22.206Z,6.27
2023-01-18T22:41:28.656Z,6.27
2023-01-18T22:44:32.939Z,6.30
2023-01-18T22:47:35.785Z,6.33
2023-01-18T22:50:38.612Z,6.38
2023-01-18T22:53:41.506Z,6.39
2023-01-18T22:56:44.288Z,6.38
2023-01-18T22:59:48.152Z,6.27
2023-01-18T23:02:52.007Z,6.18
2023-01-18T23:05:59.708Z,6.16
2023-01-18T23:09:02.757Z,6.15
2023-01-18T23:12:05.836Z,6.22
2023-01-18T23:15:29.265Z,6.27
2023-01-18T23:18:32.436Z,6.30
2023-01-18T23:21:35.267Z,6.29
2023-01-18T23:24:38.867Z,6.28
2023-01-18T23:27:41.757Z,6.19
2023-01-18T23:30:44.778Z,6.22
2023-01-18T23:33:47.649Z,6.22
2023-01-18T23:36:51.338Z,6.27
2023-01-18T23:40:12.653Z,6.22
2023-01-18T23:43:34.036Z,6.29
2023-01-18T23:46:55.299Z,6.31
2023-01-18T23:50:17.393Z,6.35
2023-01-18T23:53:38.703Z,6.42
2023-01-18T23:56:41.871Z,6.40
2023-01-18T23:59:44.700Z,6.38
